createdAt,value
2022-08-07T00:00:36.292Z,95888.69
2022-08-07T00:03:06.969Z,95886.56
2022-08-07T00:05:36.149Z,95885.81
2022-08-07T00:08:05.078Z,95882.34
2022-08-07T00:10:35.213Z,95882.34
2022-08-07T00:13:23.527Z,95872.41
2022-08-07T00:15:52.903Z,95872.72
2022-08-07T00:18:25.348Z,95873.94
2022-08-07T00:21:02.102Z,95870.28
2022-08-07T00:23:32.687Z,95868.03
2022-08-07T00:26:12.903Z,95863.13
2022-08-07T00:28:41.830Z,95866.34
2022-08-07T00:31:16.495Z,95857.97
2022-08-07T00:33:47.414Z,95856.06
2022-08-07T00:36:15.144Z,95853.31
2022-08-07T00:38:43.281Z,95853.78
2022-08-07T00:41:09.759Z,95849.72
2022-08-07T00:43:59.589Z,95859.25
2022-08-07T00:46:22.816Z,95865.88
2022-08-07T00:48:49.920Z,95863.81
2022-08-07T00:51:20.131Z,95857.78
2022-08-07T00:53:50.786Z,95855.19
2022-08-07T00:56:30.307Z,95854.59
2022-08-07T00:59:00.936Z,95846.66
2022-08-07T01:01:28.116Z,95848.19
2022-08-07T01:04:08.849Z,95844.38
2022-08-07T01:06:35.858Z,95835.81
2022-08-07T01:09:03.763Z,95838.91
2022-08-07T01:12:23.371Z,95832.50
2022-08-07T01:14:21.106Z,95833.22
2022-08-07T01:16:55.491Z,95829.00
2022-08-07T01:19:26.294Z,95820.53
2022-08-07T01:21:55.354Z,95831.53
2022-08-07T01:24:22.511Z,95828.72
2022-08-07T01:26:52.784Z,95830.88
2022-08-07T01:29:23.234Z,95833.81
2022-08-07T01:31:50.666Z,95842.75
2022-08-07T01:34:17.639Z,95835.66
2022-08-07T01:36:52.536Z,95835.50
2022-08-07T01:39:39.564Z,95843.19
2022-08-07T01:42:38.250Z,95848.38
2022-08-07T01:45:09.829Z,95854.00
2022-08-07T01:48:18.601Z,95842.78
2022-08-07T01:50:30.804Z,95845.72
2022-08-07T01:53:00.144Z,95848.22
2022-08-07T01:55:34.144Z,95838.56
2022-08-07T01:58:27.517Z,95840.97
2022-08-07T02:01:10.170Z,95846.47
2022-08-07T02:03:57.975Z,95848.03
2022-08-07T02:06:31.260Z,95841.75
2022-08-07T02:09:04.492Z,95850.53
2022-08-07T02:12:05.086Z,95846.91
2022-08-07T02:14:36.348Z,95843.63
2022-08-07T02:17:09.956Z,95841.69
2022-08-07T02:20:07.016Z,95848.41
2022-08-07T02:22:30.737Z,95853.34
2022-08-07T02:24:58.751Z,95839.63
2022-08-07T02:27:34.349Z,95841.19
2022-08-07T02:30:03.941Z,95833.72
2022-08-07T02:32:35.808Z,95835.97
2022-08-07T02:35:09.236Z,95835.78
2022-08-07T02:37:44.182Z,95826.41
2022-08-07T02:40:31.061Z,95833.38
2022-08-07T02:42:59.921Z,95831.91
2022-08-07T02:46:00.815Z,95831.69
2022-08-07T02:48:17.319Z,95830.28
2022-08-07T02:50:50.078Z,95834.03
2022-08-07T02:53:31.040Z,95827.47
2022-08-07T02:56:06.524Z,95833.69
2022-08-07T02:58:47.190Z,95824.56
2022-08-07T03:01:19.111Z,95829.59
2022-08-07T03:04:07.225Z,95813.63
2022-08-07T03:06:40.462Z,95812.13
2022-08-07T03:09:11.236Z,95814.13
2022-08-07T03:11:52.123Z,95804.31
2022-08-07T03:14:25.915Z,95807.28
2022-08-07T03:16:55.100Z,95807.81
2022-08-07T03:19:21.574Z,95789.31
2022-08-07T03:21:51.103Z,95797.97
2022-08-07T03:24:26.084Z,95789.91
2022-08-07T03:27:00.791Z,95795.59
2022-08-07T03:29:39.905Z,95794.41
2022-08-07T03:32:16.589Z,95792.03
2022-08-07T03:35:00.961Z,95787.31
2022-08-07T03:37:53.270Z,95785.34
2022-08-07T03:40:22.913Z,95784.63
2022-08-07T03:42:51.047Z,95791.41
2022-08-07T03:45:30.698Z,95781.81
2022-08-07T03:47:59.143Z,95789.44
2022-08-07T03:50:28.518Z,95780.63
2022-08-07T03:52:58.051Z,95777.00
2022-08-07T03:55:24.688Z,95781.03
2022-08-07T03:59:04.806Z,95773.84
2022-08-07T04:01:00.823Z,95781.41
2022-08-07T04:03:27.969Z,95775.56
2022-08-07T04:06:09.285Z,95774.53
2022-08-07T04:08:56.614Z,95779.28
2022-08-07T04:12:26.860Z,95773.94
2022-08-07T04:14:37.778Z,95776.53
2022-08-07T04:17:04.915Z,95779.22
2022-08-07T04:19:52.170Z,95775.81
2022-08-07T04:22:23.168Z,95778.16
2022-08-07T04:24:50.968Z,95777.81
2022-08-07T04:27:25.196Z,95783.06
2022-08-07T04:29:58.622Z,95782.97
2022-08-07T04:32:34.336Z,95777.78
2022-08-07T04:35:11.142Z,95787.13
2022-08-07T04:37:40.301Z,95789.25
2022-08-07T04:40:19.820Z,95786.28
2022-08-07T04:42:46.141Z,95793.88
2022-08-07T04:45:44.478Z,95798.97
2022-08-07T04:48:12.612Z,95804.81
2022-08-07T04:50:56.203Z,95807.06
2022-08-07T04:54:05.301Z,95808.91
2022-08-07T04:58:12.232Z,95811.47
2022-08-07T05:00:12.025Z,95814.06
2022-08-07T05:03:17.010Z,95819.19
2022-08-07T05:06:02.234Z,95819.16
2022-08-07T05:09:00.553Z,95824.13
2022-08-07T05:11:58.130Z,95827.38
2022-08-07T05:14:53.517Z,95821.63
2022-08-07T05:17:52.231Z,95820.00
2022-08-07T05:20:09.564Z,95825.25
2022-08-07T05:22:40.978Z,95814.06
2022-08-07T05:25:25.282Z,95831.22
2022-08-07T05:28:16.733Z,95822.72
2022-08-07T05:30:44.195Z,95825.97
2022-08-07T05:33:15.223Z,95826.00
2022-08-07T05:35:46.413Z,95818.88
2022-08-07T05:38:58.255Z,95814.81
2022-08-07T05:41:05.505Z,95822.25
2022-08-07T05:44:07.970Z,95820.66
2022-08-07T05:46:35.971Z,95824.06
2022-08-07T05:49:11.899Z,95823.88
2022-08-07T05:51:42.368Z,95838.41
2022-08-07T05:54:30.310Z,95835.47
2022-08-07T05:56:57.827Z,95837.28
2022-08-07T05:59:27.410Z,95838.75
2022-08-07T06:01:58.098Z,95839.31
2022-08-07T06:04:30.163Z,95840.41
2022-08-07T06:07:03.501Z,95845.91
2022-08-07T06:10:04.036Z,95838.00
2022-08-07T06:12:21.165Z,95854.59
2022-08-07T06:15:05.361Z,95843.81
2022-08-07T06:17:37.569Z,95849.63
2022-08-07T06:20:12.670Z,95848.34
2022-08-07T06:23:02.416Z,95846.75
2022-08-07T06:25:41.661Z,95855.28
2022-08-07T06:28:27.502Z,95849.94
2022-08-07T06:30:56.332Z,95858.94
2022-08-07T06:33:25.531Z,95855.13
2022-08-07T06:36:12.179Z,95848.22
2022-08-07T06:38:38.374Z,95849.03
2022-08-07T06:41:12.945Z,95851.09
2022-08-07T06:43:46.234Z,95859.28
2022-08-07T06:46:31.341Z,95849.66
2022-08-07T06:49:04.384Z,95855.81
2022-08-07T06:51:35.704Z,95855.88
2022-08-07T06:55:32.353Z,95855.00
2022-08-07T06:57:09.022Z,95844.25
2022-08-07T07:00:17.710Z,95845.31
2022-08-07T07:02:54.491Z,95855.72
2022-08-07T07:06:03.947Z,95858.06
2022-08-07T07:08:06.723Z,95851.13
2022-08-07T07:10:35.415Z,95848.78
2022-08-07T07:13:55.388Z,95848.66
2022-08-07T07:16:11.434Z,95845.59
2022-08-07T07:18:48.767Z,95843.75
2022-08-07T07:21:27.278Z,95855.25
2022-08-07T07:24:12.616Z,95847.91
2022-08-07T07:26:49.644Z,95856.22
2022-08-07T07:29:57.269Z,95856.44
2022-08-07T07:32:14.662Z,95852.47
2022-08-07T07:34:49.264Z,95851.25
2022-08-07T07:37:21.877Z,95848.47
2022-08-07T07:40:10.081Z,95849.34
2022-08-07T07:42:43.855Z,95842.97
2022-08-07T07:45:22.793Z,95835.72
2022-08-07T07:48:11.185Z,95833.38
2022-08-07T07:50:40.231Z,95840.63
2022-08-07T07:53:20.637Z,95834.22
2022-08-07T07:55:57.757Z,95842.22
2022-08-07T07:58:36.953Z,95836.88
2022-08-07T08:02:01.849Z,95839.31
2022-08-07T08:04:09.797Z,95845.78
2022-08-07T08:06:50.849Z,95846.25
2022-08-07T08:09:23.299Z,95846.94
2022-08-07T08:12:02.864Z,95843.06
2022-08-07T08:14:34.482Z,95851.41
2022-08-07T08:17:56.473Z,95839.25
2022-08-07T08:20:18.223Z,95845.00
2022-08-07T08:22:56.099Z,95844.19
2022-08-07T08:25:42.010Z,95854.13
2022-08-07T08:28:16.812Z,95844.41
2022-08-07T08:30:57.151Z,95849.09
2022-08-07T08:33:33.201Z,95856.59
2022-08-07T08:36:02.328Z,95846.28
2022-08-07T08:38:38.631Z,95841.38
2022-08-07T08:41:31.451Z,95843.22
2022-08-07T08:44:31.387Z,95844.25
2022-08-07T08:47:09.948Z,95848.03
2022-08-07T08:50:02.476Z,95845.97
2022-08-07T08:52:53.844Z,95839.38
2022-08-07T08:55:54.559Z,95844.53
2022-08-07T08:58:50.490Z,95848.31
2022-08-07T09:01:40.241Z,95839.56
2022-08-07T09:04:50.727Z,95848.34
2022-08-07T09:07:46.222Z,95838.50
2022-08-07T09:10:31.687Z,95837.34
2022-08-07T09:13:14.695Z,95846.81
2022-08-07T09:16:21.617Z,95842.00
2022-08-07T09:19:51.268Z,95848.69
2022-08-07T09:22:39.403Z,95845.41
2022-08-07T09:25:17.208Z,95846.97
2022-08-07T09:28:00.729Z,95847.78
2022-08-07T09:30:51.637Z,95837.66
2022-08-07T09:33:53.059Z,95843.13
2022-08-07T09:36:33.550Z,95844.28
2022-08-07T09:39:53.224Z,95842.00
2022-08-07T09:42:41.490Z,95843.22
2022-08-07T09:47:27.828Z,95847.22
2022-08-07T09:48:50.082Z,95843.00
2022-08-07T09:52:15.352Z,95848.13
2022-08-07T09:54:57.653Z,95843.78
2022-08-07T09:58:12.190Z,95838.63
2022-08-07T10:01:01.849Z,95846.47
2022-08-07T10:04:05.050Z,95840.09
2022-08-07T10:06:57.586Z,95838.34
2022-08-07T10:09:59.140Z,95832.66
2022-08-07T10:12:53.333Z,95831.34
2022-08-07T10:15:49.522Z,95830.22
2022-08-07T10:18:33.699Z,95830.00
2022-08-07T10:22:16.282Z,95827.31
2022-08-07T10:24:42.804Z,95821.66
2022-08-07T10:27:10.622Z,95821.13
2022-08-07T10:30:06.383Z,95823.44
2022-08-07T10:33:00.001Z,95820.25
2022-08-07T10:35:56.601Z,95821.91
2022-08-07T10:38:42.284Z,95816.91
2022-08-07T10:41:51.971Z,95811.84
2022-08-07T10:44:45.156Z,95807.03
2022-08-07T10:47:17.512Z,95810.88
2022-08-07T10:49:58.066Z,95802.66
2022-08-07T10:52:51.814Z,95809.25
2022-08-07T10:55:38.148Z,95803.28
2022-08-07T10:58:33.220Z,95809.34
2022-08-07T11:01:25.403Z,95806.69
2022-08-07T11:04:38.015Z,95802.66
2022-08-07T11:07:14.895Z,95801.19
2022-08-07T11:10:10.127Z,95800.75
2022-08-07T11:13:01.542Z,95796.94
2022-08-07T11:15:34.474Z,95791.81
2022-08-07T11:18:04.703Z,95800.22
2022-08-07T11:20:43.214Z,95793.78
2022-08-07T11:23:36.438Z,95792.06
2022-08-07T11:26:28.164Z,95787.47
2022-08-07T11:29:22.352Z,95791.63
2022-08-07T11:32:26.020Z,95786.22
2022-08-07T11:35:02.433Z,95790.56
2022-08-07T11:37:58.136Z,95798.13
2022-08-07T11:40:57.047Z,95792.19
2022-08-07T11:43:54.754Z,95787.38
2022-08-07T11:46:41.037Z,95794.94
2022-08-07T11:50:18.827Z,95795.72
2022-08-07T11:52:50.231Z,95786.31
2022-08-07T11:56:25.739Z,95797.06
2022-08-07T11:58:49.690Z,95790.44
2022-08-07T12:01:59.300Z,95784.34
2022-08-07T12:05:09.087Z,95787.28
2022-08-07T12:07:59.602Z,95788.75
2022-08-07T12:10:48.535Z,95790.59
2022-08-07T12:13:47.795Z,95782.00
2022-08-07T12:16:36.047Z,95778.78
2022-08-07T12:19:21.530Z,95788.81
2022-08-07T12:22:37.043Z,95778.78
2022-08-07T12:26:05.494Z,95788.16
2022-08-07T12:28:31.108Z,95784.72
2022-08-07T12:31:17.226Z,95776.00
2022-08-07T12:34:00.804Z,95774.78
2022-08-07T12:36:33.427Z,95774.06
2022-08-07T12:39:09.441Z,95772.00
2022-08-07T12:41:54.241Z,95765.00
2022-08-07T12:44:24.084Z,95768.41
2022-08-07T12:47:21.480Z,95760.31
2022-08-07T12:50:39.286Z,95763.00
2022-08-07T12:53:22.157Z,95767.41
2022-08-07T12:56:03.449Z,95769.00
2022-08-07T12:58:39.330Z,95761.47
2022-08-07T13:01:06.127Z,95763.59
2022-08-07T13:03:55.024Z,95757.03
2022-08-07T13:07:00.298Z,95761.69
2022-08-07T13:10:37.628Z,95754.69
2022-08-07T13:13:47.326Z,95746.25
2022-08-07T13:16:21.613Z,95745.03
2022-08-07T13:19:21.956Z,95751.66
2022-08-07T13:22:26.909Z,95739.28
2022-08-07T13:25:02.520Z,95735.50
2022-08-07T13:28:13.150Z,95728.94
2022-08-07T13:30:41.214Z,95726.16
2022-08-07T13:34:29.889Z,95727.31
2022-08-07T13:36:25.693Z,95727.63
2022-08-07T13:39:49.758Z,95725.56
2022-08-07T13:42:01.702Z,95722.31
2022-08-07T13:44:37.039Z,95721.00
2022-08-07T13:47:09.420Z,95712.13
2022-08-07T13:50:33.288Z,95718.88
2022-08-07T13:52:40.751Z,95711.34
2022-08-07T13:55:19.359Z,95714.16
2022-08-07T13:58:04.403Z,95711.25
2022-08-07T14:00:39.745Z,95720.94
2022-08-07T14:03:29.953Z,95703.38
2022-08-07T14:06:14.365Z,95696.03
2022-08-07T14:08:48.789Z,95706.41
2022-08-07T14:11:23.749Z,95706.97
2022-08-07T14:14:01.527Z,95713.13
2022-08-07T14:16:38.687Z,95717.44
2022-08-07T14:20:41.911Z,95711.91
2022-08-07T14:22:34.625Z,95698.50
2022-08-07T14:25:10.957Z,95707.06
2022-08-07T14:28:12.874Z,95707.78
2022-08-07T14:30:33.635Z,95709.53
2022-08-07T14:33:04.580Z,95700.25
2022-08-07T14:38:30.259Z,95695.38
2022-08-07T14:41:06.113Z,95703.84
2022-08-07T14:43:59.431Z,95695.88
2022-08-07T14:46:33.430Z,95708.91
2022-08-07T14:49:55.752Z,95699.22
2022-08-07T14:52:03.387Z,95690.25
2022-08-07T14:57:28.988Z,95693.16
2022-08-07T15:00:20.476Z,95687.13
2022-08-07T15:02:56.629Z,95679.56
2022-08-07T15:05:24.956Z,95695.78
2022-08-07T15:07:53.283Z,95699.47
2022-08-07T15:10:29.632Z,95698.19
2022-08-07T15:13:06.150Z,95706.06
2022-08-07T15:15:42.863Z,95697.94
2022-08-07T15:18:28.478Z,95699.22
2022-08-07T15:26:51.288Z,95698.47
2022-08-07T15:32:11.725Z,95693.38
2022-08-07T15:34:50.424Z,95689.47
2022-08-07T15:43:53.154Z,95684.28
2022-08-07T15:46:31.542Z,95691.28
2022-08-07T15:54:34.518Z,95688.31
2022-08-07T15:57:04.746Z,95692.16
2022-08-07T15:59:39.889Z,95684.66
2022-08-07T16:02:22.551Z,95689.81
2022-08-07T16:04:59.734Z,95691.31
2022-08-07T16:08:32.012Z,95694.50
2022-08-07T16:10:26.268Z,95682.44
2022-08-07T16:13:58.016Z,95683.81
2022-08-07T16:16:48.704Z,95685.81
2022-08-07T16:20:00.338Z,95676.84
2022-08-07T16:22:55.804Z,95666.00
2022-08-07T16:25:59.449Z,95676.31
2022-08-07T16:30:05.379Z,95670.06
2022-08-07T16:31:51.108Z,95664.41
2022-08-07T16:34:41.798Z,95667.38
2022-08-07T16:38:06.070Z,95666.31
2022-08-07T16:40:30.741Z,95667.66
2022-08-07T16:44:06.099Z,95664.66
2022-08-07T16:47:04.884Z,95658.75
2022-08-07T16:50:28.198Z,95658.13
2022-08-07T16:52:52.783Z,95664.13
2022-08-07T16:55:22.445Z,95661.06
2022-08-07T16:58:22.569Z,95662.78
2022-08-07T17:01:08.118Z,95662.16
2022-08-07T17:03:59.874Z,95669.69
2022-08-07T17:06:46.455Z,95665.72
2022-08-07T17:10:05.980Z,95665.72
2022-08-07T17:12:53.989Z,95669.56
2022-08-07T17:15:44.741Z,95661.41
2022-08-07T17:18:35.887Z,95665.84
2022-08-07T17:21:18.386Z,95668.38
2022-08-07T17:23:59.386Z,95663.56
2022-08-07T17:26:54.398Z,95660.03
2022-08-07T17:30:14.677Z,95656.34
2022-08-07T17:34:10.351Z,95666.06
2022-08-07T17:36:13.683Z,95667.22
2022-08-07T17:39:00.296Z,95672.78
2022-08-07T17:42:04.932Z,95671.06
2022-08-07T17:44:54.531Z,95676.25
2022-08-07T17:47:54.355Z,95675.38
2022-08-07T17:50:42.275Z,95675.47
2022-08-07T17:54:00.175Z,95693.84
2022-08-07T17:56:26.196Z,95677.59
2022-08-07T17:58:56.714Z,95679.69
2022-08-07T18:01:36.801Z,95681.50
2022-08-07T18:04:31.005Z,95681.09
2022-08-07T18:07:20.130Z,95697.22
2022-08-07T18:10:06.647Z,95681.81
2022-08-07T18:13:23.067Z,95699.63
2022-08-07T18:16:01.941Z,95693.63
2022-08-07T18:21:01.511Z,95693.56
2022-08-07T18:22:03.408Z,95693.69
2022-08-07T18:24:41.078Z,95693.41
2022-08-07T18:27:20.785Z,95700.03
2022-08-07T18:30:32.728Z,95685.69
2022-08-07T18:33:26.968Z,95692.25
2022-08-07T18:36:08.127Z,95708.94
2022-08-07T18:38:59.166Z,95708.22
2022-08-07T18:42:05.583Z,95710.66
2022-08-07T18:45:39.893Z,95711.16
2022-08-07T18:48:00.945Z,95715.94
2022-08-07T18:51:17.948Z,95711.88
2022-08-07T18:54:49.755Z,95711.28
2022-08-07T18:57:58.688Z,95716.50
2022-08-07T19:00:54.264Z,95720.25
2022-08-07T19:04:38.511Z,95718.72
2022-08-07T19:07:34.759Z,95722.03
2022-08-07T19:10:18.499Z,95733.50
2022-08-07T19:13:11.533Z,95730.75
2022-08-07T19:17:00.354Z,95729.06
2022-08-07T19:19:17.296Z,95735.81
2022-08-07T19:21:56.984Z,95730.41
2022-08-07T19:24:43.406Z,95749.16
2022-08-07T19:28:58.190Z,95746.16
2022-08-07T19:31:00.297Z,95747.72
2022-08-07T19:33:12.878Z,95749.56
2022-08-07T19:35:45.984Z,95743.84
2022-08-07T19:38:19.473Z,95746.44
2022-08-07T19:40:51.579Z,95751.28
2022-08-07T19:43:49.039Z,95754.44
2022-08-07T19:46:26.672Z,95752.88
2022-08-07T19:49:06.013Z,95752.19
2022-08-07T19:51:53.254Z,95738.94
2022-08-07T19:54:32.448Z,95745.78
2022-08-07T19:58:00.937Z,95752.81
2022-08-07T20:00:01.918Z,95755.81
2022-08-07T20:02:38.943Z,95754.50
2022-08-07T20:05:09.928Z,95751.75
2022-08-07T20:07:47.219Z,95757.28
2022-08-07T20:10:35.780Z,95760.56
2022-08-07T20:13:32.006Z,95754.72
2022-08-07T20:16:02.535Z,95753.16
2022-08-07T20:18:33.544Z,95751.22
2022-08-07T20:21:21.248Z,95739.06
2022-08-07T20:24:00.467Z,95742.97
2022-08-07T20:26:32.823Z,95727.59
2022-08-07T20:29:46.808Z,95737.38
2022-08-07T20:32:04.371Z,95726.75
2022-08-07T20:34:50.365Z,95742.84
2022-08-07T20:37:23.052Z,95733.28
2022-08-07T20:40:03.730Z,95736.81
2022-08-07T20:42:34.235Z,95748.75
2022-08-07T20:45:33.640Z,95727.38
2022-08-07T20:47:55.342Z,95738.72
2022-08-07T20:50:27.617Z,95728.78
2022-08-07T20:52:54.905Z,95732.31
2022-08-07T20:55:25.554Z,95744.84
2022-08-07T20:58:04.058Z,95738.59
2022-08-07T21:00:45.541Z,95739.94
2022-08-07T21:03:23.193Z,95733.38
2022-08-07T21:06:04.414Z,95735.31
2022-08-07T21:09:13.749Z,95737.44
2022-08-07T21:11:50.266Z,95737.66
2022-08-07T21:14:32.858Z,95733.94
2022-08-07T21:18:02.257Z,95736.22
2022-08-07T21:20:04.813Z,95732.41
2022-08-07T21:22:44.655Z,95738.50
2022-08-07T21:25:19.023Z,95734.13
2022-08-07T21:28:13.493Z,95742.47
2022-08-07T21:30:49.159Z,95739.63
2022-08-07T21:33:41.086Z,95731.84
2022-08-07T21:36:31.259Z,95742.91
2022-08-07T21:39:48.229Z,95741.84
2022-08-07T21:42:48.974Z,95742.66
2022-08-07T21:46:08.116Z,95744.34
2022-08-07T21:48:28.706Z,95746.69
2022-08-07T21:51:24.933Z,95750.13
2022-08-07T21:54:01.046Z,95744.28
2022-08-07T21:56:47.930Z,95748.47
2022-08-07T22:00:04.138Z,95746.88
2022-08-07T22:02:49.582Z,95748.56
2022-08-07T22:05:45.352Z,95749.16
2022-08-07T22:08:18.473Z,95750.91
2022-08-07T22:10:52.623Z,95749.56
2022-08-07T22:13:24.560Z,95753.00
2022-08-07T22:16:45.608Z,95748.19
2022-08-07T22:19:34.004Z,95755.38
2022-08-07T22:22:20.920Z,95746.31
2022-08-07T22:25:08.294Z,95751.19
2022-08-07T22:28:29.925Z,95749.09
2022-08-07T22:30:52.078Z,95750.22
2022-08-07T22:33:52.766Z,95746.03
2022-08-07T22:36:23.280Z,95748.81
2022-08-07T22:39:07.279Z,95753.56
2022-08-07T22:42:03.077Z,95752.19
2022-08-07T22:44:59.125Z,95757.72
2022-08-07T22:51:27.214Z,95751.94
2022-08-07T22:54:27.568Z,95758.91
2022-08-07T22:57:13.607Z,95749.38
2022-08-07T22:59:55.692Z,95761.00
2022-08-07T23:02:44.334Z,95762.47
2022-08-07T23:06:14.636Z,95764.75
2022-08-07T23:08:22.649Z,95770.69
2022-08-07T23:11:26.987Z,95763.41
2022-08-07T23:14:16.001Z,95766.88
2022-08-07T23:17:15.703Z,95763.63
2022-08-07T23:20:15.120Z,95766.44
2022-08-07T23:24:04.435Z,95759.97
2022-08-07T23:26:19.576Z,95761.63
2022-08-07T23:29:43.588Z,95768.31
2022-08-07T23:34:19.877Z,95767.66
2022-08-07T23:35:38.942Z,95767.88
2022-08-07T23:38:36.247Z,95769.75
2022-08-07T23:41:14.177Z,95771.16
2022-08-07T23:44:01.006Z,95769.38
2022-08-07T23:47:09.266Z,95782.13
2022-08-07T23:49:52.770Z,95774.00
2022-08-07T23:53:00.073Z,95779.13
2022-08-07T23:55:51.908Z,95775.63
2022-08-07T23:58:42.364Z,95776.19
